sensor_id;sensor_type;location;lat;lon;timestamp;P1;durP1;ratioP1;P2;durP2;ratioP2
58784;SDS011;44557;51.862;19.378;2023-05-16T00:00:28;9.30;;;8.20;;
58784;SDS011;44557;51.862;19.378;2023-05-16T00:02:51;9.50;;;8.40;;
58784;SDS011;44557;51.862;19.378;2023-05-16T00:04:52;9.70;;;7.80;;
58784;SDS011;44557;51.862;19.378;2023-05-16T00:06:54;9.00;;;8.00;;
58784;SDS011;44557;51.862;19.378;2023-05-16T00:08:56;9.10;;;7.80;;
58784;SDS011;44557;51.862;19.378;2023-05-16T00:10:58;10.10;;;7.90;;
58784;SDS011;44557;51.862;19.378;2023-05-16T00:12:59;9.60;;;7.70;;
58784;SDS011;44557;51.862;19.378;2023-05-16T00:15:02;10.00;;;8.40;;
58784;SDS011;44557;51.862;19.378;2023-05-16T00:17:05;10.40;;;7.50;;
58784;SDS011;44557;51.862;19.378;2023-05-16T00:19:11;9.40;;;7.50;;
58784;SDS011;44557;51.862;19.378;2023-05-16T00:21:13;8.00;;;7.00;;
58784;SDS011;44557;51.862;19.378;2023-05-16T00:23:15;10.60;;;7.90;;
58784;SDS011;44557;51.862;19.378;2023-05-16T00:25:17;8.20;;;7.20;;
58784;SDS011;44557;51.862;19.378;2023-05-16T00:27:19;11.20;;;7.90;;
58784;SDS011;44557;51.862;19.378;2023-05-16T00:29:21;9.20;;;7.70;;
58784;SDS011;44557;51.862;19.378;2023-05-16T00:31:24;8.90;;;7.70;;
58784;SDS011;44557;51.862;19.378;2023-05-16T00:33:26;9.00;;;7.50;;
58784;SDS011;44557;51.862;19.378;2023-05-16T00:35:27;12.30;;;8.20;;
58784;SDS011;44557;51.862;19.378;2023-05-16T00:37:29;11.20;;;9.00;;
58784;SDS011;44557;51.862;19.378;2023-05-16T00:39:30;12.10;;;8.50;;
58784;SDS011;44557;51.862;19.378;2023-05-16T00:41:32;11.30;;;8.40;;
58784;SDS011;44557;51.862;19.378;2023-05-16T00:43:34;14.30;;;8.40;;
58784;SDS011;44557;51.862;19.378;2023-05-16T00:45:37;9.80;;;8.30;;
58784;SDS011;44557;51.862;19.378;2023-05-16T00:47:38;11.30;;;9.50;;
58784;SDS011;44557;51.862;19.378;2023-05-16T00:49:41;10.50;;;8.80;;
58784;SDS011;44557;51.862;19.378;2023-05-16T00:51:43;10.10;;;8.60;;
58784;SDS011;44557;51.862;19.378;2023-05-16T00:53:44;10.80;;;9.20;;
58784;SDS011;44557;51.862;19.378;2023-05-16T00:55:46;11.00;;;9.90;;
58784;SDS011;44557;51.862;19.378;2023-05-16T00:57:48;10.80;;;8.70;;
58784;SDS011;44557;51.862;19.378;2023-05-16T00:59:50;11.40;;;9.20;;
58784;SDS011;44557;51.862;19.378;2023-05-16T01:01:52;10.40;;;8.30;;
58784;SDS011;44557;51.862;19.378;2023-05-16T01:03:55;11.20;;;9.50;;
58784;SDS011;44557;51.862;19.378;2023-05-16T01:05:57;10.10;;;9.10;;
58784;SDS011;44557;51.862;19.378;2023-05-16T01:07:59;10.80;;;9.70;;
58784;SDS011;44557;51.862;19.378;2023-05-16T01:10:01;10.40;;;9.30;;
58784;SDS011;44557;51.862;19.378;2023-05-16T01:16:25;13.00;;;11.10;;
58784;SDS011;44557;51.862;19.378;2023-05-16T01:21:18;12.90;;;11.30;;
58784;SDS011;44557;51.862;19.378;2023-05-16T01:23:39;13.70;;;10.90;;
58784;SDS011;44557;51.862;19.378;2023-05-16T01:26:08;12.60;;;11.30;;
58784;SDS011;44557;51.862;19.378;2023-05-16T01:28:12;13.70;;;11.80;;
58784;SDS011;44557;51.862;19.378;2023-05-16T01:30:17;12.60;;;11.30;;
58784;SDS011;44557;51.862;19.378;2023-05-16T01:32:20;12.80;;;11.50;;
58784;SDS011;44557;51.862;19.378;2023-05-16T01:34:22;13.40;;;12.10;;
58784;SDS011;44557;51.862;19.378;2023-05-16T01:37:08;12.00;;;10.80;;
58784;SDS011;44557;51.862;19.378;2023-05-16T01:41:22;13.20;;;11.90;;
58784;SDS011;44557;51.862;19.378;2023-05-16T01:43:29;14.00;;;12.60;;
58784;SDS011;44557;51.862;19.378;2023-05-16T01:45:35;14.30;;;11.90;;
58784;SDS011;44557;51.862;19.378;2023-05-16T01:47:42;12.60;;;11.30;;
58784;SDS011;44557;51.862;19.378;2023-05-16T01:52:14;13.80;;;12.10;;
58784;SDS011;44557;51.862;19.378;2023-05-16T01:54:20;13.00;;;11.60;;
58784;SDS011;44557;51.862;19.378;2023-05-16T01:56:26;12.90;;;11.60;;
58784;SDS011;44557;51.862;19.378;2023-05-16T01:58:31;13.90;;;12.50;;
58784;SDS011;44557;51.862;19.378;2023-05-16T02:00:35;14.20;;;12.20;;
58784;SDS011;44557;51.862;19.378;2023-05-16T02:02:36;12.50;;;11.20;;
58784;SDS011;44557;51.862;19.378;2023-05-16T02:04:38;13.20;;;11.80;;
58784;SDS011;44557;51.862;19.378;2023-05-16T02:06:42;13.20;;;11.80;;
58784;SDS011;44557;51.862;19.378;2023-05-16T02:08:44;13.90;;;11.70;;
58784;SDS011;44557;51.862;19.378;2023-05-16T02:10:46;13.10;;;11.40;;
58784;SDS011;44557;51.862;19.378;2023-05-16T02:12:48;12.50;;;11.20;;
58784;SDS011;44557;51.862;19.378;2023-05-16T02:14:50;12.80;;;11.40;;
58784;SDS011;44557;51.862;19.378;2023-05-16T02:16:52;14.20;;;12.60;;
58784;SDS011;44557;51.862;19.378;2023-05-16T02:18:54;13.90;;;12.40;;
58784;SDS011;44557;51.862;19.378;2023-05-16T02:20:55;13.50;;;12.10;;
58784;SDS011;44557;51.862;19.378;2023-05-16T02:22:57;13.90;;;11.30;;
58784;SDS011;44557;51.862;19.378;2023-05-16T02:24:59;11.80;;;10.30;;
58784;SDS011;44557;51.862;19.378;2023-05-16T02:27:01;13.00;;;11.60;;
58784;SDS011;44557;51.862;19.378;2023-05-16T02:29:02;12.60;;;11.00;;
58784;SDS011;44557;51.862;19.378;2023-05-16T02:31:04;13.90;;;12.40;;
58784;SDS011;44557;51.862;19.378;2023-05-16T02:33:06;13.80;;;12.30;;
58784;SDS011;44557;51.862;19.378;2023-05-16T02:35:07;13.20;;;11.80;;
58784;SDS011;44557;51.862;19.378;2023-05-16T02:37:09;13.70;;;12.10;;
58784;SDS011;44557;51.862;19.378;2023-05-16T02:39:11;13.40;;;11.70;;
58784;SDS011;44557;51.862;19.378;2023-05-16T02:41:13;14.00;;;12.30;;
58784;SDS011;44557;51.862;19.378;2023-05-16T02:43:14;14.60;;;13.10;;
58784;SDS011;44557;51.862;19.378;2023-05-16T02:45:16;13.70;;;12.20;;
58784;SDS011;44557;51.862;19.378;2023-05-16T02:47:17;12.50;;;11.20;;
58784;SDS011;44557;51.862;19.378;2023-05-16T02:49:19;13.70;;;12.30;;
58784;SDS011;44557;51.862;19.378;2023-05-16T02:51:22;14.60;;;12.60;;
58784;SDS011;44557;51.862;19.378;2023-05-16T02:53:25;15.50;;;12.60;;
58784;SDS011;44557;51.862;19.378;2023-05-16T02:55:27;14.80;;;12.80;;
58784;SDS011;44557;51.862;19.378;2023-05-16T02:57:29;14.50;;;12.70;;
58784;SDS011;44557;51.862;19.378;2023-05-16T02:59:30;16.50;;;12.90;;
58784;SDS011;44557;51.862;19.378;2023-05-16T03:01:32;14.80;;;13.30;;
58784;SDS011;44557;51.862;19.378;2023-05-16T03:03:35;14.40;;;12.60;;
58784;SDS011;44557;51.862;19.378;2023-05-16T03:05:37;14.40;;;12.50;;
58784;SDS011;44557;51.862;19.378;2023-05-16T03:07:39;14.10;;;12.60;;
58784;SDS011;44557;51.862;19.378;2023-05-16T03:09:41;14.70;;;13.20;;
58784;SDS011;44557;51.862;19.378;2023-05-16T03:11:42;13.00;;;11.60;;
58784;SDS011;44557;51.862;19.378;2023-05-16T03:13:44;14.50;;;11.80;;
58784;SDS011;44557;51.862;19.378;2023-05-16T03:15:46;15.20;;;13.50;;
58784;SDS011;44557;51.862;19.378;2023-05-16T03:17:48;14.70;;;12.20;;
58784;SDS011;44557;51.862;19.378;2023-05-16T03:19:49;12.60;;;11.30;;
58784;SDS011;44557;51.862;19.378;2023-05-16T03:21:51;14.60;;;12.60;;
58784;SDS011;44557;51.862;19.378;2023-05-16T03:23:53;13.10;;;11.50;;
58784;SDS011;44557;51.862;19.378;2023-05-16T03:25:55;13.00;;;11.60;;
58784;SDS011;44557;51.862;19.378;2023-05-16T03:27:56;15.60;;;12.80;;
58784;SDS011;44557;51.862;19.378;2023-05-16T03:29:58;13.90;;;12.20;;
58784;SDS011;44557;51.862;19.378;2023-05-16T03:31:59;14.80;;;12.00;;
58784;SDS011;44557;51.862;19.378;2023-05-16T03:34:01;13.20;;;11.40;;
58784;SDS011;44557;51.862;19.378;2023-05-16T03:36:04;13.60;;;12.20;;
58784;SDS011;44557;51.862;19.378;2023-05-16T03:38:06;13.20;;;11.90;;
58784;SDS011;44557;51.862;19.378;2023-05-16T03:40:08;14.70;;;12.50;;
58784;SDS011;44557;51.862;19.378;2023-05-16T03:42:11;13.70;;;11.80;;
58784;SDS011;44557;51.862;19.378;2023-05-16T03:44:13;13.50;;;11.40;;
58784;SDS011;44557;51.862;19.378;2023-05-16T03:46:14;13.10;;;11.60;;
58784;SDS011;44557;51.862;19.378;2023-05-16T03:48:16;13.30;;;11.40;;
58784;SDS011;44557;51.862;19.378;2023-05-16T03:50:17;12.70;;;11.40;;
58784;SDS011;44557;51.862;19.378;2023-05-16T03:52:19;10.80;;;9.10;;
58784;SDS011;44557;51.862;19.378;2023-05-16T03:54:21;15.00;;;12.20;;
58784;SDS011;44557;51.862;19.378;2023-05-16T03:56:22;12.20;;;10.90;;
58784;SDS011;44557;51.862;19.378;2023-05-16T03:58:24;14.20;;;11.90;;
58784;SDS011;44557;51.862;19.378;2023-05-16T04:00:26;14.60;;;11.60;;
58784;SDS011;44557;51.862;19.378;2023-05-16T04:02:27;13.30;;;11.90;;
58784;SDS011;44557;51.862;19.378;2023-05-16T04:04:29;12.60;;;11.10;;
58784;SDS011;44557;51.862;19.378;2023-05-16T04:06:31;14.20;;;11.70;;
58784;SDS011;44557;51.862;19.378;2023-05-16T04:08:32;14.00;;;11.10;;
58784;SDS011;44557;51.862;19.378;2023-05-16T04:10:34;14.20;;;11.50;;
58784;SDS011;44557;51.862;19.378;2023-05-16T04:12:36;13.40;;;11.10;;
58784;SDS011;44557;51.862;19.378;2023-05-16T04:14:38;12.60;;;11.10;;
58784;SDS011;44557;51.862;19.378;2023-05-16T04:16:40;13.20;;;10.40;;
58784;SDS011;44557;51.862;19.378;2023-05-16T04:18:41;13.10;;;10.80;;
58784;SDS011;44557;51.862;19.378;2023-05-16T04:20:43;14.70;;;11.60;;
58784;SDS011;44557;51.862;19.378;2023-05-16T04:22:47;11.80;;;10.40;;
58784;SDS011;44557;51.862;19.378;2023-05-16T04:24:49;12.50;;;11.10;;
58784;SDS011;44557;51.862;19.378;2023-05-16T04:26:51;12.10;;;10.80;;
58784;SDS011;44557;51.862;19.378;2023-05-16T04:28:52;13.00;;;11.20;;
58784;SDS011;44557;51.862;19.378;2023-05-16T04:30:54;11.40;;;10.20;;
58784;SDS011;44557;51.862;19.378;2023-05-16T04:32:56;11.90;;;10.60;;
58784;SDS011;44557;51.862;19.378;2023-05-16T04:34:59;12.00;;;10.70;;
58784;SDS011;44557;51.862;19.378;2023-05-16T04:37:01;14.50;;;11.20;;
58784;SDS011;44557;51.862;19.378;2023-05-16T04:39:05;12.20;;;11.00;;
58784;SDS011;44557;51.862;19.378;2023-05-16T04:41:07;11.20;;;10.00;;
58784;SDS011;44557;51.862;19.378;2023-05-16T04:43:09;12.30;;;11.10;;
58784;SDS011;44557;51.862;19.378;2023-05-16T04:45:11;13.10;;;11.60;;
58784;SDS011;44557;51.862;19.378;2023-05-16T04:47:14;12.50;;;11.20;;
58784;SDS011;44557;51.862;19.378;2023-05-16T04:49:16;12.10;;;10.50;;
58784;SDS011;44557;51.862;19.378;2023-05-16T04:51:18;13.20;;;11.80;;
58784;SDS011;44557;51.862;19.378;2023-05-16T04:53:19;14.30;;;11.70;;
58784;SDS011;44557;51.862;19.378;2023-05-16T04:55:21;13.40;;;11.10;;
58784;SDS011;44557;51.862;19.378;2023-05-16T04:57:23;13.80;;;11.30;;
58784;SDS011;44557;51.862;19.378;2023-05-16T04:59:24;12.60;;;10.90;;
58784;SDS011;44557;51.862;19.378;2023-05-16T05:01:26;14.10;;;11.90;;
58784;SDS011;44557;51.862;19.378;2023-05-16T05:03:28;12.50;;;11.20;;
58784;SDS011;44557;51.862;19.378;2023-05-16T05:05:29;13.60;;;10.90;;
58784;SDS011;44557;51.862;19.378;2023-05-16T05:07:31;15.10;;;12.20;;
58784;SDS011;44557;51.862;19.378;2023-05-16T05:09:34;12.20;;;10.70;;
58784;SDS011;44557;51.862;19.378;2023-05-16T05:11:36;12.80;;;11.50;;
58784;SDS011;44557;51.862;19.378;2023-05-16T05:13:37;12.00;;;10.70;;
58784;SDS011;44557;51.862;19.378;2023-05-16T05:15:39;12.60;;;11.10;;
58784;SDS011;44557;51.862;19.378;2023-05-16T05:17:40;12.40;;;10.90;;
58784;SDS011;44557;51.862;19.378;2023-05-16T05:19:42;9.70;;;14.60;;
58784;SDS011;44557;51.862;19.378;2023-05-16T05:21:44;14.30;;;12.90;;
58784;SDS011;44557;51.862;19.378;2023-05-16T05:23:45;14.70;;;13.00;;
58784;SDS011;44557;51.862;19.378;2023-05-16T05:25:47;13.60;;;12.30;;
58784;SDS011;44557;51.862;19.378;2023-05-16T05:27:49;15.30;;;13.00;;
58784;SDS011;44557;51.862;19.378;2023-05-16T05:29:50;15.00;;;13.50;;
58784;SDS011;44557;51.862;19.378;2023-05-16T05:31:52;14.80;;;13.40;;
58784;SDS011;44557;51.862;19.378;2023-05-16T05:33:53;17.00;;;14.10;;
58784;SDS011;44557;51.862;19.378;2023-05-16T05:35:57;16.20;;;13.80;;
58784;SDS011;44557;51.862;19.378;2023-05-16T05:37:58;18.20;;;13.30;;
58784;SDS011;44557;51.862;19.378;2023-05-16T05:40:00;16.70;;;13.40;;
58784;SDS011;44557;51.862;19.378;2023-05-16T05:42:03;14.10;;;12.70;;
58784;SDS011;44557;51.862;19.378;2023-05-16T05:44:05;14.70;;;13.20;;
58784;SDS011;44557;51.862;19.378;2023-05-16T05:46:07;14.90;;;13.50;;
58784;SDS011;44557;51.862;19.378;2023-05-16T05:48:09;14.00;;;12.50;;
58784;SDS011;44557;51.862;19.378;2023-05-16T05:50:11;17.50;;;12.90;;
58784;SDS011;44557;51.862;19.378;2023-05-16T05:52:14;15.20;;;13.60;;
58784;SDS011;44557;51.862;19.378;2023-05-16T05:54:16;15.60;;;12.80;;
58784;SDS011;44557;51.862;19.378;2023-05-16T05:56:19;13.50;;;12.20;;
58784;SDS011;44557;51.862;19.378;2023-05-16T05:58:21;46.00;;;13.00;;
58784;SDS011;44557;51.862;19.378;2023-05-16T06:00:23;12.70;;;11.50;;
58784;SDS011;44557;51.862;19.378;2023-05-16T06:02:25;13.00;;;11.80;;
58784;SDS011;44557;51.862;19.378;2023-05-16T06:04:28;12.20;;;10.10;;
58784;SDS011;44557;51.862;19.378;2023-05-16T06:06:29;11.50;;;10.20;;
58784;SDS011;44557;51.862;19.378;2023-05-16T06:08:31;11.90;;;10.70;;
58784;SDS011;44557;51.862;19.378;2023-05-16T06:10:33;11.80;;;10.60;;
58784;SDS011;44557;51.862;19.378;2023-05-16T06:12:35;11.20;;;9.50;;
58784;SDS011;44557;51.862;19.378;2023-05-16T06:14:36;10.90;;;8.80;;
58784;SDS011;44557;51.862;19.378;2023-05-16T06:16:38;10.70;;;9.50;;
58784;SDS011;44557;51.862;19.378;2023-05-16T06:18:40;9.80;;;8.60;;
58784;SDS011;44557;51.862;19.378;2023-05-16T06:20:42;9.70;;;8.70;;
58784;SDS011;44557;51.862;19.378;2023-05-16T06:22:44;9.80;;;8.80;;
58784;SDS011;44557;51.862;19.378;2023-05-16T06:24:45;12.10;;;8.00;;
58784;SDS011;44557;51.862;19.378;2023-05-16T06:26:47;8.90;;;7.20;;
58784;SDS011;44557;51.862;19.378;2023-05-16T06:28:50;9.00;;;7.20;;
58784;SDS011;44557;51.862;19.378;2023-05-16T06:30:51;10.80;;;8.10;;
58784;SDS011;44557;51.862;19.378;2023-05-16T06:32:53;8.80;;;7.10;;
58784;SDS011;44557;51.862;19.378;2023-05-16T06:34:55;11.10;;;7.70;;
58784;SDS011;44557;51.862;19.378;2023-05-16T06:36:56;13.90;;;8.70;;
58784;SDS011;44557;51.862;19.378;2023-05-16T06:38:59;13.90;;;9.80;;
58784;SDS011;44557;51.862;19.378;2023-05-16T06:41:00;10.80;;;7.80;;
58784;SDS011;44557;51.862;19.378;2023-05-16T06:43:02;12.50;;;8.10;;
58784;SDS011;44557;51.862;19.378;2023-05-16T06:45:04;10.70;;;8.50;;
58784;SDS011;44557;51.862;19.378;2023-05-16T06:47:07;9.70;;;6.50;;
58784;SDS011;44557;51.862;19.378;2023-05-16T06:49:08;10.90;;;7.00;;
58784;SDS011;44557;51.862;19.378;2023-05-16T06:51:10;15.50;;;6.80;;
58784;SDS011;44557;51.862;19.378;2023-05-16T06:53:12;100.10;;;18.00;;
58784;SDS011;44557;51.862;19.378;2023-05-16T06:55:13;10.10;;;6.30;;
58784;SDS011;44557;51.862;19.378;2023-05-16T06:57:15;7.40;;;5.40;;
58784;SDS011;44557;51.862;19.378;2023-05-16T06:59:16;8.50;;;5.10;;
58784;SDS011;44557;51.862;19.378;2023-05-16T07:01:18;6.00;;;4.70;;
58784;SDS011;44557;51.862;19.378;2023-05-16T07:03:20;8.70;;;4.80;;
58784;SDS011;44557;51.862;19.378;2023-05-16T07:05:21;8.40;;;4.60;;
58784;SDS011;44557;51.862;19.378;2023-05-16T07:07:23;6.70;;;5.10;;
58784;SDS011;44557;51.862;19.378;2023-05-16T07:09:26;6.30;;;5.30;;
58784;SDS011;44557;51.862;19.378;2023-05-16T07:11:28;8.80;;;6.40;;
58784;SDS011;44557;51.862;19.378;2023-05-16T07:13:29;7.40;;;4.80;;
58784;SDS011;44557;51.862;19.378;2023-05-16T07:15:31;9.50;;;4.80;;
58784;SDS011;44557;51.862;19.378;2023-05-16T07:17:33;6.00;;;4.20;;
58784;SDS011;44557;51.862;19.378;2023-05-16T07:19:35;6.60;;;4.40;;
58784;SDS011;44557;51.862;19.378;2023-05-16T07:21:36;5.80;;;4.30;;
58784;SDS011;44557;51.862;19.378;2023-05-16T07:23:38;7.80;;;4.70;;
58784;SDS011;44557;51.862;19.378;2023-05-16T07:25:40;7.40;;;4.50;;
58784;SDS011;44557;51.862;19.378;2023-05-16T07:27:41;7.00;;;4.90;;
58784;SDS011;44557;51.862;19.378;2023-05-16T07:29:45;7.70;;;4.70;;
58784;SDS011;44557;51.862;19.378;2023-05-16T07:31:49;6.70;;;4.40;;
58784;SDS011;44557;51.862;19.378;2023-05-16T07:33:51;6.30;;;4.00;;
58784;SDS011;44557;51.862;19.378;2023-05-16T07:35:53;7.00;;;4.50;;
58784;SDS011;44557;51.862;19.378;2023-05-16T07:37:55;6.40;;;4.30;;
58784;SDS011;44557;51.862;19.378;2023-05-16T07:39:57;10.60;;;4.10;;
58784;SDS011;44557;51.862;19.378;2023-05-16T07:41:58;8.80;;;3.90;;
58784;SDS011;44557;51.862;19.378;2023-05-16T07:44:00;8.60;;;4.00;;
58784;SDS011;44557;51.862;19.378;2023-05-16T07:46:02;4.80;;;3.50;;
58784;SDS011;44557;51.862;19.378;2023-05-16T07:48:03;6.80;;;3.90;;
58784;SDS011;44557;51.862;19.378;2023-05-16T07:50:05;5.50;;;3.70;;
58784;SDS011;44557;51.862;19.378;2023-05-16T07:52:07;9.40;;;4.00;;
58784;SDS011;44557;51.862;19.378;2023-05-16T07:54:09;22.40;;;5.80;;
58784;SDS011;44557;51.862;19.378;2023-05-16T07:56:10;5.50;;;3.50;;
58784;SDS011;44557;51.862;19.378;2023-05-16T07:58:13;105.70;;;15.00;;
58784;SDS011;44557;51.862;19.378;2023-05-16T08:00:15;9.20;;;4.30;;
58784;SDS011;44557;51.862;19.378;2023-05-16T08:02:18;6.30;;;3.50;;
58784;SDS011;44557;51.862;19.378;2023-05-16T08:04:19;7.30;;;3.70;;
58784;SDS011;44557;51.862;19.378;2023-05-16T08:06:21;3.90;;;2.80;;
58784;SDS011;44557;51.862;19.378;2023-05-16T08:08:23;5.90;;;3.00;;
58784;SDS011;44557;51.862;19.378;2023-05-16T08:10:24;21.20;;;4.70;;
58784;SDS011;44557;51.862;19.378;2023-05-16T08:12:26;7.40;;;3.30;;
58784;SDS011;44557;51.862;19.378;2023-05-16T08:14:31;5.50;;;2.80;;
58784;SDS011;44557;51.862;19.378;2023-05-16T08:16:33;5.10;;;2.80;;
58784;SDS011;44557;51.862;19.378;2023-05-16T08:18:34;4.90;;;3.00;;
58784;SDS011;44557;51.862;19.378;2023-05-16T08:20:36;4.60;;;3.00;;
58784;SDS011;44557;51.862;19.378;2023-05-16T08:22:37;4.10;;;2.90;;
58784;SDS011;44557;51.862;19.378;2023-05-16T08:24:39;4.20;;;2.90;;
58784;SDS011;44557;51.862;19.378;2023-05-16T08:26:41;4.90;;;3.30;;
58784;SDS011;44557;51.862;19.378;2023-05-16T08:28:43;4.90;;;3.40;;
58784;SDS011;44557;51.862;19.378;2023-05-16T08:30:45;4.50;;;3.20;;
58784;SDS011;44557;51.862;19.378;2023-05-16T08:32:46;3.80;;;2.80;;
58784;SDS011;44557;51.862;19.378;2023-05-16T08:34:48;4.90;;;3.20;;
58784;SDS011;44557;51.862;19.378;2023-05-16T08:36:49;3.50;;;2.20;;
58784;SDS011;44557;51.862;19.378;2023-05-16T08:38:51;3.20;;;2.40;;
58784;SDS011;44557;51.862;19.378;2023-05-16T08:40:53;2.90;;;2.10;;
58784;SDS011;44557;51.862;19.378;2023-05-16T08:42:54;4.40;;;1.70;;
58784;SDS011;44557;51.862;19.378;2023-05-16T08:44:56;5.20;;;2.40;;
58784;SDS011;44557;51.862;19.378;2023-05-16T08:46:58;2.90;;;1.90;;
58784;SDS011;44557;51.862;19.378;2023-05-16T08:49:12;3.10;;;2.10;;
58784;SDS011;44557;51.862;19.378;2023-05-16T08:51:14;4.30;;;2.00;;
58784;SDS011;44557;51.862;19.378;2023-05-16T08:53:21;3.60;;;2.30;;
58784;SDS011;44557;51.862;19.378;2023-05-16T08:55:33;3.50;;;2.30;;
58784;SDS011;44557;51.862;19.378;2023-05-16T08:57:36;5.40;;;2.30;;
58784;SDS011;44557;51.862;19.378;2023-05-16T08:59:39;3.70;;;2.10;;
58784;SDS011;44557;51.862;19.378;2023-05-16T09:01:41;4.90;;;1.90;;
58784;SDS011;44557;51.862;19.378;2023-05-16T09:03:42;5.00;;;2.50;;
58784;SDS011;44557;51.862;19.378;2023-05-16T09:05:45;3.50;;;2.10;;
58784;SDS011;44557;51.862;19.378;2023-05-16T09:07:47;2.40;;;1.80;;
58784;SDS011;44557;51.862;19.378;2023-05-16T09:09:48;4.10;;;1.70;;
58784;SDS011;44557;51.862;19.378;2023-05-16T09:11:50;4.20;;;1.60;;
58784;SDS011;44557;51.862;19.378;2023-05-16T09:13:51;3.90;;;1.90;;
58784;SDS011;44557;51.862;19.378;2023-05-16T09:16:09;1.70;;;1.50;;
58784;SDS011;44557;51.862;19.378;2023-05-16T09:20:15;2.70;;;1.80;;
58784;SDS011;44557;51.862;19.378;2023-05-16T09:22:18;3.20;;;1.60;;
58784;SDS011;44557;51.862;19.378;2023-05-16T09:24:20;9.90;;;1.90;;
58784;SDS011;44557;51.862;19.378;2023-05-16T09:26:26;16.50;;;2.50;;
58784;SDS011;44557;51.862;19.378;2023-05-16T09:28:29;7.30;;;1.90;;
58784;SDS011;44557;51.862;19.378;2023-05-16T09:30:31;6.40;;;2.00;;
58784;SDS011;44557;51.862;19.378;2023-05-16T09:32:34;2.60;;;1.80;;
58784;SDS011;44557;51.862;19.378;2023-05-16T09:34:54;10.40;;;1.90;;
58784;SDS011;44557;51.862;19.378;2023-05-16T09:36:58;5.50;;;1.80;;
58784;SDS011;44557;51.862;19.378;2023-05-16T09:39:00;13.60;;;2.30;;
58784;SDS011;44557;51.862;19.378;2023-05-16T09:41:02;3.10;;;1.90;;
58784;SDS011;44557;51.862;19.378;2023-05-16T09:43:24;4.60;;;1.90;;
58784;SDS011;44557;51.862;19.378;2023-05-16T09:45:27;4.00;;;1.90;;
58784;SDS011;44557;51.862;19.378;2023-05-16T09:47:28;5.30;;;1.90;;
58784;SDS011;44557;51.862;19.378;2023-05-16T09:49:31;2.50;;;1.90;;
58784;SDS011;44557;51.862;19.378;2023-05-16T09:51:33;3.50;;;2.00;;
58784;SDS011;44557;51.862;19.378;2023-05-16T09:53:34;3.10;;;2.00;;
58784;SDS011;44557;51.862;19.378;2023-05-16T09:55:38;4.80;;;2.00;;
58784;SDS011;44557;51.862;19.378;2023-05-16T09:57:40;3.50;;;1.80;;
58784;SDS011;44557;51.862;19.378;2023-05-16T09:59:41;3.40;;;2.20;;
58784;SDS011;44557;51.862;19.378;2023-05-16T10:01:45;2.70;;;1.80;;
58784;SDS011;44557;51.862;19.378;2023-05-16T10:03:49;3.30;;;2.20;;
58784;SDS011;44557;51.862;19.378;2023-05-16T10:05:51;2.90;;;2.30;;
58784;SDS011;44557;51.862;19.378;2023-05-16T10:07:56;3.80;;;2.10;;
58784;SDS011;44557;51.862;19.378;2023-05-16T10:10:04;3.50;;;1.90;;
58784;SDS011;44557;51.862;19.378;2023-05-16T10:12:08;3.60;;;2.00;;
58784;SDS011;44557;51.862;19.378;2023-05-16T10:14:13;6.00;;;3.40;;
58784;SDS011;44557;51.862;19.378;2023-05-16T10:16:19;4.60;;;2.80;;
58784;SDS011;44557;51.862;19.378;2023-05-16T10:18:30;3.90;;;2.70;;
58784;SDS011;44557;51.862;19.378;2023-05-16T10:20:32;4.70;;;2.30;;
58784;SDS011;44557;51.862;19.378;2023-05-16T10:22:34;2.60;;;1.90;;
58784;SDS011;44557;51.862;19.378;2023-05-16T10:24:43;4.30;;;2.50;;
58784;SDS011;44557;51.862;19.378;2023-05-16T10:27:08;4.60;;;2.10;;
58784;SDS011;44557;51.862;19.378;2023-05-16T10:29:11;5.70;;;3.70;;
58784;SDS011;44557;51.862;19.378;2023-05-16T10:31:14;4.30;;;2.20;;
58784;SDS011;44557;51.862;19.378;2023-05-16T10:33:17;4.40;;;2.70;;
58784;SDS011;44557;51.862;19.378;2023-05-16T10:35:22;3.20;;;2.30;;
58784;SDS011;44557;51.862;19.378;2023-05-16T10:37:24;3.20;;;2.30;;
58784;SDS011;44557;51.862;19.378;2023-05-16T10:39:26;3.20;;;2.50;;
58784;SDS011;44557;51.862;19.378;2023-05-16T10:41:29;6.50;;;2.80;;
58784;SDS011;44557;51.862;19.378;2023-05-16T10:43:33;3.20;;;2.40;;
58784;SDS011;44557;51.862;19.378;2023-05-16T10:45:40;4.10;;;2.10;;
58784;SDS011;44557;51.862;19.378;2023-05-16T10:47:55;3.90;;;2.50;;
58784;SDS011;44557;51.862;19.378;2023-05-16T10:49:59;3.40;;;2.50;;
58784;SDS011;44557;51.862;19.378;2023-05-16T10:52:05;4.50;;;2.40;;
58784;SDS011;44557;51.862;19.378;2023-05-16T10:54:11;4.00;;;2.30;;
58784;SDS011;44557;51.862;19.378;2023-05-16T10:56:15;20.40;;;3.40;;
58784;SDS011;44557;51.862;19.378;2023-05-16T11:00:38;7.00;;;2.40;;
58784;SDS011;44557;51.862;19.378;2023-05-16T11:02:40;3.90;;;2.50;;
58784;SDS011;44557;51.862;19.378;2023-05-16T11:04:47;12.30;;;2.80;;
58784;SDS011;44557;51.862;19.378;2023-05-16T11:06:51;4.60;;;2.10;;
58784;SDS011;44557;51.862;19.378;2023-05-16T11:09:40;5.60;;;2.30;;
58784;SDS011;44557;51.862;19.378;2023-05-16T11:13:54;3.70;;;2.20;;
58784;SDS011;44557;51.862;19.378;2023-05-16T11:18:31;6.50;;;3.70;;
58784;SDS011;44557;51.862;19.378;2023-05-16T11:20:34;9.00;;;2.90;;
58784;SDS011;44557;51.862;19.378;2023-05-16T11:22:38;6.70;;;2.40;;
58784;SDS011;44557;51.862;19.378;2023-05-16T11:24:53;3.80;;;2.50;;
58784;SDS011;44557;51.862;19.378;2023-05-16T11:27:04;3.30;;;2.20;;
58784;SDS011;44557;51.862;19.378;2023-05-16T11:29:07;4.90;;;2.30;;
58784;SDS011;44557;51.862;19.378;2023-05-16T11:31:08;7.50;;;2.60;;
58784;SDS011;44557;51.862;19.378;2023-05-16T11:33:10;3.90;;;2.20;;
58784;SDS011;44557;51.862;19.378;2023-05-16T11:35:15;5.20;;;2.40;;
58784;SDS011;44557;51.862;19.378;2023-05-16T11:37:18;3.90;;;2.40;;
58784;SDS011;44557;51.862;19.378;2023-05-16T11:39:21;36.00;;;4.20;;
58784;SDS011;44557;51.862;19.378;2023-05-16T11:41:26;7.60;;;2.40;;
58784;SDS011;44557;51.862;19.378;2023-05-16T11:43:28;6.10;;;2.30;;
58784;SDS011;44557;51.862;19.378;2023-05-16T11:45:29;3.70;;;2.30;;
58784;SDS011;44557;51.862;19.378;2023-05-16T11:47:31;7.50;;;2.40;;
58784;SDS011;44557;51.862;19.378;2023-05-16T11:49:33;3.50;;;2.70;;
58784;SDS011;44557;51.862;19.378;2023-05-16T11:51:39;10.20;;;3.30;;
58784;SDS011;44557;51.862;19.378;2023-05-16T11:53:42;50.70;;;9.90;;
58784;SDS011;44557;51.862;19.378;2023-05-16T11:55:43;8.00;;;4.40;;
58784;SDS011;44557;51.862;19.378;2023-05-16T11:57:48;63.00;;;5.70;;
58784;SDS011;44557;51.862;19.378;2023-05-16T11:59:52;19.40;;;3.00;;
58784;SDS011;44557;51.862;19.378;2023-05-16T12:01:54;9.60;;;2.50;;
58784;SDS011;44557;51.862;19.378;2023-05-16T12:03:56;4.80;;;2.50;;
58784;SDS011;44557;51.862;19.378;2023-05-16T12:05:58;6.80;;;2.60;;
58784;SDS011;44557;51.862;19.378;2023-05-16T12:07:59;5.50;;;3.20;;
58784;SDS011;44557;51.862;19.378;2023-05-16T12:10:07;4.50;;;2.60;;
58784;SDS011;44557;51.862;19.378;2023-05-16T12:14:12;5.40;;;3.00;;
58784;SDS011;44557;51.862;19.378;2023-05-16T12:16:14;5.30;;;2.30;;
58784;SDS011;44557;51.862;19.378;2023-05-16T12:18:17;11.00;;;2.70;;
58784;SDS011;44557;51.862;19.378;2023-05-16T12:20:19;5.50;;;2.40;;
58784;SDS011;44557;51.862;19.378;2023-05-16T12:22:21;3.50;;;2.20;;